createdAt,value
2022-12-18T00:01:28.788Z,40.07
2022-12-18T00:03:57.531Z,38.13
2022-12-18T00:06:26.313Z,35.67
2022-12-18T00:08:53.690Z,34.67
2022-12-18T00:11:24.422Z,35.03
2022-12-18T00:13:52.223Z,37.60
2022-12-18T00:16:22.504Z,36.53
2022-12-18T00:18:51.010Z,39.73
2022-12-18T00:21:18.097Z,38.87
2022-12-18T00:23:46.075Z,35.27
2022-12-18T00:26:16.696Z,34.47
2022-12-18T00:28:44.852Z,35.97
2022-12-18T00:31:17.247Z,34.90
2022-12-18T00:33:44.677Z,33.83
2022-12-18T00:36:18.468Z,35.53
2022-12-18T00:38:46.290Z,39.27
2022-12-18T00:41:15.168Z,36.83
2022-12-18T00:43:42.292Z,35.20
2022-12-18T00:46:09.560Z,34.03
2022-12-18T00:48:36.563Z,33.27
2022-12-18T00:51:03.526Z,33.13
2022-12-18T00:53:30.412Z,36.27
2022-12-18T00:55:57.264Z,34.30
2022-12-18T00:58:24.192Z,34.20
2022-12-18T01:00:51.436Z,34.83
2022-12-18T01:03:18.471Z,32.47
2022-12-18T01:05:45.674Z,32.07
2022-12-18T01:08:12.547Z,35.30
2022-12-18T01:10:42.177Z,36.00
2022-12-18T01:13:09.415Z,32.53
2022-12-18T01:15:36.935Z,32.33
2022-12-18T01:18:03.833Z,31.60
2022-12-18T01:20:30.697Z,32.33
2022-12-18T01:22:58.593Z,31.47
2022-12-18T01:25:26.159Z,31.17
2022-12-18T01:27:53.102Z,31.10
2022-12-18T01:30:19.986Z,30.73
2022-12-18T01:32:46.856Z,33.43
2022-12-18T01:35:13.782Z,32.37
2022-12-18T01:37:40.681Z,32.97
2022-12-18T01:40:10.353Z,32.57
2022-12-18T01:42:39.058Z,31.80
2022-12-18T01:45:14.957Z,32.70
2022-12-18T01:47:48.033Z,29.63
2022-12-18T01:50:19.458Z,31.73
2022-12-18T01:52:49.921Z,32.37
2022-12-18T01:55:21.697Z,33.03
2022-12-18T01:57:50.689Z,29.60
2022-12-18T02:00:21.719Z,31.27
2022-12-18T02:02:49.662Z,32.57
2022-12-18T02:05:21.237Z,31.60
2022-12-18T02:08:07.406Z,30.80
2022-12-18T02:10:58.538Z,31.30
2022-12-18T02:13:36.941Z,31.40
2022-12-18T02:16:39.404Z,29.97
2022-12-18T02:19:30.239Z,29.43
2022-12-18T02:22:39.493Z,30.87
2022-12-18T02:25:33.734Z,31.07
2022-12-18T02:28:05.296Z,31.30
2022-12-18T02:30:37.467Z,30.57
2022-12-18T02:33:08.101Z,30.60
2022-12-18T02:35:36.444Z,30.83
2022-12-18T02:38:05.353Z,28.90
2022-12-18T02:40:32.958Z,30.80
2022-12-18T02:43:14.558Z,29.27
2022-12-18T02:46:26.027Z,30.63
2022-12-18T02:48:59.139Z,31.23
2022-12-18T02:51:34.047Z,31.70
2022-12-18T02:54:11.882Z,30.87
2022-12-18T02:56:58.942Z,29.80
2022-12-18T02:59:52.708Z,30.80
2022-12-18T03:02:36.735Z,29.73
2022-12-18T03:05:14.552Z,30.53
2022-12-18T03:08:23.073Z,30.73
2022-12-18T03:11:05.978Z,32.23
2022-12-18T03:13:36.265Z,33.87
2022-12-18T03:16:06.351Z,33.50
2022-12-18T03:18:46.576Z,32.03
2022-12-18T03:21:16.739Z,33.97
2022-12-18T03:23:50.543Z,34.23
2022-12-18T03:26:20.665Z,32.57
2022-12-18T03:28:54.146Z,33.23
2022-12-18T03:31:24.541Z,34.13
2022-12-18T03:33:56.169Z,34.00
2022-12-18T03:36:24.499Z,33.57
2022-12-18T03:38:53.198Z,32.73
2022-12-18T03:41:33.289Z,31.40
2022-12-18T03:44:06.039Z,30.73
2022-12-18T03:46:54.279Z,30.20
2022-12-18T03:49:39.659Z,29.37
2022-12-18T03:52:48.578Z,32.87
2022-12-18T03:55:15.914Z,30.50
2022-12-18T03:57:45.336Z,29.87
2022-12-18T04:00:15.548Z,28.30
2022-12-18T04:02:50.677Z,27.60
2022-12-18T04:05:19.364Z,29.00
2022-12-18T04:07:48.766Z,27.13
2022-12-18T04:10:19.082Z,27.90
2022-12-18T04:12:46.038Z,27.70
2022-12-18T04:15:14.731Z,26.30
2022-12-18T04:17:50.979Z,28.87
2022-12-18T04:20:18.190Z,27.60
2022-12-18T04:22:45.191Z,28.53
2022-12-18T04:25:13.478Z,26.47
2022-12-18T04:27:40.475Z,26.10
2022-12-18T04:30:09.351Z,27.47
2022-12-18T04:32:36.486Z,26.97
2022-12-18T04:35:05.430Z,25.53
2022-12-18T04:37:32.298Z,25.07
2022-12-18T04:39:59.153Z,24.63
2022-12-18T04:42:26.025Z,25.17
2022-12-18T04:44:52.937Z,24.73
2022-12-18T04:47:19.937Z,26.23
2022-12-18T04:49:46.831Z,25.40
2022-12-18T04:52:13.827Z,25.73
2022-12-18T04:54:40.709Z,25.50
2022-12-18T04:57:07.580Z,24.23
2022-12-18T04:59:34.557Z,24.67
2022-12-18T05:02:01.546Z,24.70
2022-12-18T05:04:28.619Z,24.67
2022-12-18T05:06:55.698Z,23.30
2022-12-18T05:09:22.595Z,24.23
2022-12-18T05:11:49.489Z,23.60
2022-12-18T05:14:16.437Z,24.80
2022-12-18T05:16:43.336Z,24.07
2022-12-18T05:19:11.233Z,23.40
2022-12-18T05:21:38.268Z,23.07
2022-12-18T05:24:05.573Z,23.33
2022-12-18T05:26:33.508Z,23.40
2022-12-18T05:29:00.434Z,22.80
2022-12-18T05:31:27.378Z,21.07
2022-12-18T05:33:55.104Z,22.93
2022-12-18T05:36:21.949Z,24.33
2022-12-18T05:38:50.310Z,22.10
2022-12-18T05:41:17.513Z,21.83
2022-12-18T05:43:44.625Z,23.00
2022-12-18T05:46:18.780Z,22.17
2022-12-18T05:48:46.327Z,22.23
2022-12-18T05:51:15.978Z,22.30
2022-12-18T05:53:43.924Z,22.97
2022-12-18T05:56:16.577Z,22.97
2022-12-18T05:58:43.789Z,21.47
2022-12-18T06:01:25.215Z,21.40
2022-12-18T06:03:52.433Z,20.80
2022-12-18T06:06:21.117Z,21.00
2022-12-18T06:08:48.109Z,21.07
2022-12-18T06:11:18.062Z,21.63
2022-12-18T06:13:44.947Z,21.47
2022-12-18T06:16:11.978Z,21.60
2022-12-18T06:18:39.034Z,21.87
2022-12-18T06:21:06.107Z,21.37
2022-12-18T06:23:33.024Z,22.10
2022-12-18T06:25:59.942Z,20.20
2022-12-18T06:28:26.798Z,21.20
2022-12-18T06:30:54.077Z,20.13
2022-12-18T06:33:22.139Z,21.10
2022-12-18T06:35:49.071Z,19.70
2022-12-18T06:38:15.970Z,19.97
2022-12-18T06:40:42.852Z,20.10
2022-12-18T06:43:09.798Z,20.10
2022-12-18T06:45:36.757Z,19.07
2022-12-18T06:48:03.726Z,18.70
2022-12-18T06:50:30.605Z,18.63
2022-12-18T06:52:58.206Z,19.07
2022-12-18T06:55:25.154Z,18.23
2022-12-18T06:57:52.221Z,18.60
2022-12-18T07:00:19.503Z,17.53
2022-12-18T07:02:46.602Z,17.67
2022-12-18T07:05:13.603Z,18.50
2022-12-18T07:07:40.578Z,16.77
2022-12-18T07:10:08.731Z,16.47
2022-12-18T07:12:35.723Z,16.73
2022-12-18T07:15:04.187Z,17.00
2022-12-18T07:17:31.073Z,15.70
2022-12-18T07:20:00.003Z,16.13
2022-12-18T07:22:27.228Z,15.20
2022-12-18T07:24:54.319Z,14.10
2022-12-18T07:27:21.222Z,13.77
2022-12-18T07:29:48.282Z,13.93
2022-12-18T07:32:21.169Z,14.70
2022-12-18T07:34:51.241Z,14.03
2022-12-18T07:37:18.153Z,14.17
2022-12-18T07:39:45.486Z,13.83
2022-12-18T07:42:32.234Z,13.40
2022-12-18T07:45:03.169Z,14.27
2022-12-18T07:47:30.237Z,13.53
2022-12-18T07:49:57.870Z,13.83
2022-12-18T07:52:26.478Z,13.97
2022-12-18T07:54:53.559Z,14.07
2022-12-18T07:57:41.684Z,13.40
2022-12-18T08:00:09.144Z,13.53
2022-12-18T08:02:39.448Z,14.17
2022-12-18T08:05:07.115Z,12.93
2022-12-18T08:07:37.138Z,13.43
2022-12-18T08:10:05.474Z,13.53
2022-12-18T08:12:35.357Z,14.23
2022-12-18T08:15:04.556Z,13.70
2022-12-18T08:17:33.924Z,12.50
2022-12-18T08:20:01.192Z,12.63
2022-12-18T08:22:31.309Z,12.90
2022-12-18T08:24:59.442Z,12.70
2022-12-18T08:27:30.405Z,12.07
2022-12-18T08:29:58.533Z,10.37
2022-12-18T08:32:28.119Z,12.03
2022-12-18T08:34:58.193Z,10.17
2022-12-18T08:37:28.252Z,11.40
2022-12-18T08:39:58.258Z,12.13
2022-12-18T08:42:46.760Z,11.67
2022-12-18T08:45:16.015Z,12.17
2022-12-18T08:47:43.376Z,12.23
2022-12-18T08:50:13.018Z,12.77
2022-12-18T08:52:42.034Z,11.50
2022-12-18T08:55:15.153Z,11.23
2022-12-18T08:57:51.239Z,11.87
2022-12-18T09:00:24.370Z,11.10
2022-12-18T09:02:51.387Z,11.50
2022-12-18T09:05:18.421Z,12.23
2022-12-18T09:07:48.434Z,11.20
2022-12-18T09:10:16.406Z,11.37
2022-12-18T09:12:46.005Z,11.37
2022-12-18T09:15:15.987Z,11.87
2022-12-18T09:17:44.870Z,12.23
2022-12-18T09:20:11.979Z,10.67
2022-12-18T09:22:41.994Z,11.67
2022-12-18T09:25:09.298Z,11.80
2022-12-18T09:27:36.414Z,11.50
2022-12-18T09:30:04.190Z,12.10
2022-12-18T09:32:34.105Z,11.93
2022-12-18T09:35:05.417Z,12.40
2022-12-18T09:37:35.427Z,11.87
2022-12-18T09:40:03.709Z,11.43
2022-12-18T09:42:32.081Z,11.70
2022-12-18T09:45:02.454Z,11.90
2022-12-18T09:47:35.032Z,12.27
2022-12-18T09:50:08.793Z,11.80
2022-12-18T09:52:48.461Z,11.80
2022-12-18T09:55:37.552Z,12.30
2022-12-18T09:58:17.925Z,11.33
2022-12-18T10:00:48.078Z,11.87
2022-12-18T10:03:17.392Z,11.77
2022-12-18T10:05:56.211Z,11.13
2022-12-18T10:08:42.305Z,11.70
2022-12-18T10:11:54.996Z,11.47
2022-12-18T10:15:00.470Z,12.37
2022-12-18T10:17:56.482Z,10.67
2022-12-18T10:20:42.205Z,10.33
2022-12-18T10:23:23.659Z,11.70
2022-12-18T10:26:07.699Z,11.43
2022-12-18T10:28:42.066Z,11.17
2022-12-18T10:31:23.967Z,10.40
2022-12-18T10:33:54.975Z,10.87
2022-12-18T10:36:25.434Z,10.80
2022-12-18T10:38:52.806Z,10.53
2022-12-18T10:41:21.758Z,10.13
2022-12-18T10:44:21.487Z,12.03
2022-12-18T10:47:10.148Z,10.97
2022-12-18T10:49:53.626Z,10.57
2022-12-18T10:52:26.920Z,11.20
2022-12-18T10:55:00.071Z,11.20
2022-12-18T10:57:39.910Z,11.30
2022-12-18T11:00:29.774Z,10.73
2022-12-18T11:02:57.624Z,12.13
2022-12-18T11:05:32.866Z,11.03
2022-12-18T11:08:05.272Z,11.10
2022-12-18T11:10:37.434Z,11.67
2022-12-18T11:13:22.574Z,11.03
2022-12-18T11:15:53.425Z,10.20
2022-12-18T11:18:32.916Z,11.57
2022-12-18T11:21:15.712Z,11.73
2022-12-18T11:23:53.294Z,12.33
2022-12-18T11:26:34.724Z,13.17
2022-12-18T11:29:28.250Z,12.77
2022-12-18T11:32:35.253Z,12.33
2022-12-18T11:35:40.960Z,11.97
2022-12-18T11:38:23.928Z,11.43
2022-12-18T11:41:17.879Z,13.03
2022-12-18T11:44:24.053Z,13.73
2022-12-18T11:47:02.924Z,12.60
2022-12-18T11:49:37.332Z,13.40
2022-12-18T11:52:17.488Z,12.93
2022-12-18T11:54:44.529Z,12.00
2022-12-18T11:57:43.394Z,13.90
2022-12-18T12:00:11.515Z,13.77
2022-12-18T12:03:13.676Z,13.33
2022-12-18T12:05:55.847Z,14.03
2022-12-18T12:08:57.221Z,14.27
2022-12-18T12:11:44.796Z,14.37
2022-12-18T12:14:29.796Z,14.17
2022-12-18T12:17:16.346Z,14.53
2022-12-18T12:20:14.964Z,14.93
2022-12-18T12:23:33.066Z,15.50
2022-12-18T12:26:31.578Z,13.83
2022-12-18T12:29:10.614Z,15.30
2022-12-18T12:32:12.671Z,13.87
2022-12-18T12:35:17.782Z,16.20
2022-12-18T12:38:12.577Z,14.70
2022-12-18T12:40:54.957Z,16.73
2022-12-18T12:43:49.468Z,15.73
2022-12-18T12:49:18.475Z,15.57
2022-12-18T12:51:52.653Z,16.70
2022-12-18T12:54:24.286Z,16.63
2022-12-18T12:57:37.066Z,17.67
2022-12-18T13:00:16.418Z,17.23
2022-12-18T13:03:07.626Z,16.93
2022-12-18T13:06:01.536Z,18.57
2022-12-18T13:08:33.922Z,17.03
2022-12-18T13:11:21.311Z,17.53
2022-12-18T13:13:43.500Z,16.97
2022-12-18T13:13:58.797Z,16.23
2022-12-18T13:16:30.249Z,18.57
2022-12-18T13:18:59.939Z,17.87
2022-12-18T13:21:33.465Z,17.73
2022-12-18T13:24:37.178Z,18.73
2022-12-18T13:27:41.363Z,18.03
2022-12-18T13:30:33.341Z,19.90
2022-12-18T13:33:19.314Z,19.57
2022-12-18T13:36:13.320Z,20.13
2022-12-18T13:38:46.438Z,20.30
2022-12-18T13:41:29.304Z,20.00
2022-12-18T13:44:10.922Z,19.47
2022-12-18T13:46:48.222Z,19.67
2022-12-18T13:49:26.366Z,20.07
2022-12-18T13:51:58.939Z,19.43
2022-12-18T13:54:31.634Z,20.17
2022-12-18T13:56:59.698Z,21.00
2022-12-18T13:59:37.558Z,19.50
2022-12-18T14:02:18.048Z,19.47
2022-12-18T14:04:52.429Z,19.90
2022-12-18T14:07:34.707Z,19.90
2022-12-18T14:10:42.116Z,20.80
2022-12-18T14:13:09.355Z,20.93
2022-12-18T14:15:47.241Z,20.27
2022-12-18T14:18:37.366Z,19.20
2022-12-18T14:21:05.732Z,21.03
2022-12-18T14:23:43.790Z,19.87
2022-12-18T14:26:31.380Z,21.67
2022-12-18T14:29:02.622Z,21.33
2022-12-18T14:31:32.792Z,20.97
2022-12-18T14:34:01.653Z,20.30
2022-12-18T14:36:29.964Z,20.83
2022-12-18T14:39:00.412Z,21.00
2022-12-18T14:41:36.585Z,20.57
2022-12-18T14:44:13.679Z,20.73
2022-12-18T14:46:44.570Z,20.50
2022-12-18T14:49:35.703Z,20.27
2022-12-18T14:52:07.138Z,18.53
2022-12-18T14:54:39.331Z,19.30
2022-12-18T14:57:36.838Z,21.60
2022-12-18T15:00:15.436Z,19.63
2022-12-18T15:02:57.589Z,20.47
2022-12-18T15:05:31.954Z,20.40
2022-12-18T15:08:03.304Z,20.50
2022-12-18T15:10:33.605Z,19.70
2022-12-18T15:13:00.883Z,19.40
2022-12-18T15:15:46.003Z,19.50
2022-12-18T15:18:21.107Z,19.03
2022-12-18T15:21:11.289Z,21.40
2022-12-18T15:23:54.480Z,20.17
2022-12-18T15:26:24.547Z,19.97
2022-12-18T15:28:57.146Z,20.47
2022-12-18T15:31:31.922Z,20.07
2022-12-18T15:34:12.216Z,19.37
2022-12-18T15:36:40.388Z,19.93
2022-12-18T15:39:14.218Z,19.70
2022-12-18T15:42:03.443Z,18.73
2022-12-18T15:44:30.661Z,19.07
2022-12-18T15:46:58.059Z,19.80
2022-12-18T15:49:25.068Z,19.87
2022-12-18T15:52:00.554Z,19.60
2022-12-18T15:54:45.914Z,19.10
2022-12-18T15:57:25.223Z,18.63
2022-12-18T15:59:59.297Z,19.63
2022-12-18T16:02:27.058Z,20.30
2022-12-18T16:04:55.251Z,20.80
2022-12-18T16:07:22.988Z,20.63
2022-12-18T16:09:52.114Z,18.80
2022-12-18T16:12:22.667Z,20.73
2022-12-18T16:14:50.839Z,19.97
2022-12-18T16:17:20.334Z,18.97
2022-12-18T16:19:49.284Z,20.37
2022-12-18T16:22:24.197Z,19.50
2022-12-18T16:24:52.849Z,18.23
2022-12-18T16:27:23.299Z,18.67
2022-12-18T16:29:53.446Z,19.37
2022-12-18T16:32:23.617Z,20.13
2022-12-18T16:35:00.479Z,19.20
2022-12-18T16:37:30.673Z,19.87
2022-12-18T16:39:57.678Z,20.53
2022-12-18T16:42:25.389Z,19.57
2022-12-18T16:44:53.360Z,20.57
2022-12-18T16:47:21.380Z,20.57
2022-12-18T16:49:54.403Z,18.60
2022-12-18T16:52:23.331Z,19.17
2022-12-18T16:54:53.628Z,19.87
2022-12-18T16:57:25.234Z,19.47
2022-12-18T16:59:54.098Z,21.43
2022-12-18T17:02:24.421Z,20.70
2022-12-18T17:04:55.037Z,20.53
2022-12-18T17:07:23.721Z,20.50
2022-12-18T17:09:54.179Z,20.87
2022-12-18T17:12:24.318Z,20.63
2022-12-18T17:14:51.315Z,19.33
2022-12-18T17:17:23.059Z,21.30
2022-12-18T17:19:51.315Z,21.10
2022-12-18T17:22:20.179Z,21.80
2022-12-18T17:24:49.182Z,19.67
2022-12-18T17:27:17.139Z,20.90
2022-12-18T17:29:48.609Z,19.37
2022-12-18T17:32:17.299Z,21.30
2022-12-18T17:34:46.473Z,19.13
2022-12-18T17:37:15.788Z,21.33
2022-12-18T17:39:42.866Z,20.77
2022-12-18T17:42:15.211Z,20.67
2022-12-18T17:44:45.810Z,20.23
2022-12-18T17:47:18.975Z,21.03
2022-12-18T17:49:46.956Z,21.00
2022-12-18T17:52:15.116Z,19.60
2022-12-18T17:54:48.234Z,20.27
2022-12-18T17:57:25.898Z,19.87
2022-12-18T17:59:53.878Z,20.73
2022-12-18T18:02:23.056Z,20.70
2022-12-18T18:04:53.202Z,18.77
2022-12-18T18:07:20.198Z,20.90
2022-12-18T18:09:47.414Z,21.00
2022-12-18T18:12:32.950Z,20.07
2022-12-18T18:15:00.913Z,18.90
2022-12-18T18:17:33.988Z,19.80
2022-12-18T18:20:01.046Z,20.43
2022-12-18T18:22:29.919Z,21.10
2022-12-18T18:24:57.142Z,20.13
2022-12-18T18:27:27.115Z,20.70
2022-12-18T18:29:56.096Z,20.17
2022-12-18T18:32:26.166Z,20.57
2022-12-18T18:34:54.145Z,20.20
2022-12-18T18:37:23.171Z,19.60
2022-12-18T18:39:50.184Z,19.93
2022-12-18T18:42:17.213Z,21.23
2022-12-18T18:44:49.052Z,19.23
2022-12-18T18:47:19.467Z,20.77
2022-12-18T18:49:46.493Z,19.93
2022-12-18T18:52:14.521Z,20.23
2022-12-18T18:54:57.148Z,19.40
2022-12-18T18:57:34.873Z,21.27
2022-12-18T19:00:03.422Z,20.83
2022-12-18T19:02:30.781Z,21.10
2022-12-18T19:04:57.970Z,20.60
2022-12-18T19:07:30.339Z,21.80
2022-12-18T19:10:03.854Z,20.40
2022-12-18T19:12:51.489Z,21.03
2022-12-18T19:15:19.741Z,20.27
2022-12-18T19:17:47.914Z,20.33
2022-12-18T19:20:15.958Z,20.07
2022-12-18T19:22:47.907Z,20.93
2022-12-18T19:25:26.940Z,20.10
2022-12-18T19:28:00.930Z,21.33
2022-12-18T19:30:28.888Z,22.30
2022-12-18T19:33:05.531Z,21.07
2022-12-18T19:35:41.715Z,21.97
2022-12-18T19:38:10.720Z,21.50
2022-12-18T19:40:41.511Z,20.70
2022-12-18T19:43:08.591Z,21.43
2022-12-18T19:45:42.303Z,20.97
2022-12-18T19:48:12.455Z,20.97
2022-12-18T19:50:50.590Z,21.13
2022-12-18T19:53:19.567Z,18.80
2022-12-18T19:55:47.573Z,19.17
2022-12-18T19:58:17.827Z,20.93
2022-12-18T20:00:47.448Z,19.07
2022-12-18T20:03:24.320Z,19.70
2022-12-18T20:05:55.776Z,19.07
2022-12-18T20:08:22.949Z,19.50
2022-12-18T20:10:49.947Z,19.27
2022-12-18T20:13:17.491Z,18.50
2022-12-18T20:15:46.449Z,19.00
2022-12-18T20:18:13.494Z,20.00
2022-12-18T20:20:40.787Z,19.87
2022-12-18T20:23:10.812Z,19.50
2022-12-18T20:25:40.795Z,20.43
2022-12-18T20:28:09.766Z,20.17
2022-12-18T20:30:36.893Z,20.33
2022-12-18T20:33:05.322Z,17.93
2022-12-18T20:35:34.469Z,20.37
2022-12-18T20:38:03.766Z,20.10
2022-12-18T20:40:34.067Z,20.23
2022-12-18T20:43:05.204Z,19.67
2022-12-18T20:45:35.516Z,19.43
2022-12-18T20:48:05.448Z,18.27
2022-12-18T20:50:36.602Z,18.87
2022-12-18T20:53:10.070Z,18.90
2022-12-18T20:55:43.249Z,18.80
2022-12-18T20:58:12.234Z,19.07
2022-12-18T21:00:44.327Z,18.83
2022-12-18T21:03:14.477Z,18.50
2022-12-18T21:05:44.900Z,17.33
2022-12-18T21:08:17.889Z,18.80
2022-12-18T21:10:46.912Z,18.70
2022-12-18T21:13:14.825Z,18.57
2022-12-18T21:15:44.612Z,17.90
2022-12-18T21:18:12.576Z,18.20
2022-12-18T21:20:42.485Z,17.30
2022-12-18T21:23:15.733Z,19.07
2022-12-18T21:25:45.769Z,18.57
2022-12-18T21:28:16.439Z,18.43
2022-12-18T21:30:43.420Z,17.00
2022-12-18T21:33:10.527Z,18.37
2022-12-18T21:35:38.383Z,18.50
2022-12-18T21:38:06.347Z,17.93
2022-12-18T21:40:33.250Z,17.67
2022-12-18T21:43:18.807Z,19.07
2022-12-18T21:45:45.710Z,17.80
2022-12-18T21:48:12.656Z,17.60
2022-12-18T21:50:39.561Z,19.20
2022-12-18T21:53:06.603Z,17.10
2022-12-18T21:55:33.519Z,17.67
2022-12-18T21:58:00.381Z,17.83
2022-12-18T22:00:27.246Z,18.33
2022-12-18T22:03:15.574Z,18.80
2022-12-18T22:05:42.013Z,18.83
2022-12-18T22:08:08.919Z,16.43
2022-12-18T22:10:36.976Z,17.10
2022-12-18T22:13:05.509Z,18.93
2022-12-18T22:15:32.802Z,17.43
2022-12-18T22:18:00.801Z,16.63
2022-12-18T22:20:29.987Z,16.53
2022-12-18T22:23:04.227Z,17.20
2022-12-18T22:25:33.937Z,16.33
2022-12-18T22:28:20.653Z,17.77
2022-12-18T22:30:47.601Z,16.07
2022-12-18T22:33:15.812Z,16.77
2022-12-18T22:35:42.795Z,16.90
2022-12-18T22:38:09.802Z,16.17
2022-12-18T22:40:36.668Z,16.07
2022-12-18T22:43:03.599Z,16.37
2022-12-18T22:45:30.479Z,16.90
2022-12-18T22:47:58.627Z,16.93
2022-12-18T22:50:25.570Z,16.23
2022-12-18T22:52:52.612Z,15.57
2022-12-18T22:55:22.638Z,15.43
2022-12-18T22:57:56.058Z,15.20
2022-12-18T23:00:28.974Z,14.87
2022-12-18T23:03:00.862Z,15.80
2022-12-18T23:05:32.117Z,16.33
2022-12-18T23:08:01.078Z,14.20
2022-12-18T23:10:30.078Z,15.60
2022-12-18T23:12:57.117Z,16.30
2022-12-18T23:15:27.707Z,15.17
2022-12-18T23:17:55.804Z,14.87
2022-12-18T23:20:22.778Z,14.17
2022-12-18T23:22:49.647Z,14.40
2022-12-18T23:25:16.608Z,15.40
2022-12-18T23:27:43.489Z,15.20
2022-12-18T23:30:11.079Z,14.00
2022-12-18T23:32:38.185Z,13.87
2022-12-18T23:35:05.877Z,14.33
2022-12-18T23:37:58.635Z,14.53
2022-12-18T23:40:21.375Z,13.37
2022-12-18T23:42:48.260Z,14.00
2022-12-18T23:45:18.082Z,13.70
2022-12-18T23:47:45.410Z,13.67
2022-12-18T23:50:15.195Z,13.53
2022-12-18T23:52:42.153Z,14.27
2022-12-18T23:55:09.218Z,13.20
2022-12-18T23:57:36.101Z,13.67
